Time;durP1;ratioP1;P1;durP2;ratioP2;P2;SDS_P1;SDS_P2;PMS_P1;PMS_P2;Temp;Humidity;BMP_temperature;BMP_pressure;BME280_temperature;BME280_humidity;BME280_pressure;Samples;Min_cycle;Max_cycle;Signal;HPM_P1;HPM_P2
2022/01/29 00:00:28;;;;;;;22.65;9.23;;;;;;;;;;5033518;28;20464;-65
2022/01/29 00:02:56;;;;;;;24.02;9.95;;;;;;;;;;5029368;28;20059;-66
2022/01/29 00:05:21;;;;;;;19.48;9.43;;;;;;;;;;5023621;28;20025;-65
2022/01/29 00:07:50;;;;;;;27.63;11.20;;;;;;;;;;5020578;28;20038;-66
2022/01/29 00:10:18;;;;;;;22.88;11.00;;;;;;;;;;5013536;28;20088;-67
2022/01/29 00:12:43;;;;;;;15.45;8.07;;;;;;;;;;5016100;28;20468;-66
2022/01/29 00:15:12;;;;;;;18.77;9.55;;;;;;;;;;5012218;28;20044;-66
2022/01/29 00:17:37;;;;;;;21.17;9.18;;;;;;;;;;5021182;28;20434;-66
2022/01/29 00:20:04;;;;;;;25.83;10.80;;;;;;;;;;5030481;28;20030;-66
2022/01/29 00:22:29;;;;;;;28.10;12.75;;;;;;;;;;5028265;28;20046;-66
2022/01/29 00:24:57;;;;;;;29.02;12.65;;;;;;;;;;5014177;28;20403;-66
2022/01/29 00:27:25;;;;;;;29.85;12.93;;;;;;;;;;5026745;28;20033;-66
2022/01/29 00:29:50;;;;;;;31.98;13.65;;;;;;;;;;5013719;28;20042;-67
2022/01/29 00:32:16;;;;;;;26.90;11.30;;;;;;;;;;5013172;28;20033;-66
2022/01/29 00:34:42;;;;;;;25.67;12.30;;;;;;;;;;5027152;28;20098;-67
2022/01/29 00:37:08;;;;;;;25.98;12.32;;;;;;;;;;5015985;28;20029;-69
2022/01/29 00:39:33;;;;;;;28.33;12.20;;;;;;;;;;5015334;28;20529;-66
2022/01/29 00:41:59;;;;;;;29.25;14.50;;;;;;;;;;5032095;28;20415;-66
2022/01/29 00:44:24;;;;;;;30.80;13.43;;;;;;;;;;5022917;28;21002;-64
2022/01/29 00:46:50;;;;;;;37.08;15.13;;;;;;;;;;5013672;28;20030;-66
2022/01/29 00:49:15;;;;;;;29.13;12.73;;;;;;;;;;5027361;28;20082;-66
2022/01/29 00:51:41;;;;;;;28.77;13.60;;;;;;;;;;5030414;28;20037;-66
2022/01/29 00:54:07;;;;;;;28.02;12.63;;;;;;;;;;5023756;28;20041;-69
2022/01/29 00:56:32;;;;;;;33.90;14.55;;;;;;;;;;5013664;28;20041;-66
2022/01/29 00:58:58;;;;;;;30.60;12.68;;;;;;;;;;5013736;28;20030;-65
2022/01/29 01:01:24;;;;;;;29.30;13.68;;;;;;;;;;5023695;28;20076;-66
2022/01/29 01:03:49;;;;;;;22.95;10.57;;;;;;;;;;5028640;28;20672;-66
2022/01/29 01:06:14;;;;;;;25.25;11.55;;;;;;;;;;5021570;28;20038;-66
2022/01/29 01:08:40;;;;;;;25.95;11.05;;;;;;;;;;5032080;28;20029;-66
2022/01/29 01:11:09;;;;;;;24.73;12.20;;;;;;;;;;5031427;28;20036;-66
2022/01/29 01:13:34;;;;;;;27.20;12.07;;;;;;;;;;5024437;28;20022;-67
2022/01/29 01:16:00;;;;;;;34.10;14.40;;;;;;;;;;5013594;28;20060;-66
2022/01/29 01:18:26;;;;;;;31.98;14.07;;;;;;;;;;5026867;28;20030;-65
2022/01/29 01:20:53;;;;;;;34.63;13.70;;;;;;;;;;5050585;28;20397;-65
2022/01/29 01:23:19;;;;;;;24.58;10.80;;;;;;;;;;5019520;28;20040;-66
2022/01/29 01:25:48;;;;;;;28.17;12.18;;;;;;;;;;5026677;28;20033;-65
2022/01/29 01:28:14;;;;;;;38.13;14.93;;;;;;;;;;5017299;28;20030;-65
2022/01/29 01:30:40;;;;;;;28.90;12.95;;;;;;;;;;5026230;28;20121;-65
2022/01/29 01:33:05;;;;;;;33.35;15.07;;;;;;;;;;5012527;28;20432;-65
2022/01/29 01:35:46;;;;;;;34.40;16.10;;;;;;;;;;5011263;28;20598;-66
2022/01/29 01:38:22;;;;;;;37.90;15.85;;;;;;;;;;5021793;28;20045;-69
2022/01/29 01:40:53;;;;;;;25.35;13.55;;;;;;;;;;5012841;28;20034;-65
2022/01/29 01:43:19;;;;;;;28.70;13.57;;;;;;;;;;5020705;28;20040;-65
2022/01/29 01:45:44;;;;;;;30.80;13.65;;;;;;;;;;5014535;28;20108;-65
2022/01/29 01:48:10;;;;;;;24.55;11.93;;;;;;;;;;5024147;28;20489;-69
2022/01/29 01:50:36;;;;;;;29.35;13.30;;;;;;;;;;5017114;28;20439;-65
2022/01/29 01:53:03;;;;;;;27.63;13.18;;;;;;;;;;5025814;28;20112;-65
2022/01/29 01:55:29;;;;;;;35.60;15.50;;;;;;;;;;5022009;28;20029;-65
2022/01/29 01:57:55;;;;;;;35.88;16.00;;;;;;;;;;5016361;28;20030;-66
2022/01/29 02:00:21;;;;;;;35.83;16.60;;;;;;;;;;5019820;28;20386;-66
2022/01/29 02:02:46;;;;;;;42.20;17.23;;;;;;;;;;5035814;28;20028;-65
2022/01/29 02:05:12;;;;;;;29.88;13.95;;;;;;;;;;5029352;28;20103;-68
2022/01/29 02:07:38;;;;;;;23.83;10.82;;;;;;;;;;5013859;28;20464;-65
2022/01/29 02:10:08;;;;;;;33.80;13.35;;;;;;;;;;5033496;28;20510;-65
2022/01/29 02:12:50;;;;;;;36.53;16.27;;;;;;;;;;5017951;28;20038;-65
2022/01/29 02:15:21;;;;;;;32.17;14.30;;;;;;;;;;5039655;28;20037;-66
2022/01/29 02:17:48;;;;;;;38.95;15.93;;;;;;;;;;5031382;28;20049;-65
2022/01/29 02:20:16;;;;;;;30.75;13.80;;;;;;;;;;5012424;28;20468;-69
2022/01/29 02:22:43;;;;;;;34.72;15.30;;;;;;;;;;5026496;28;20033;-65
2022/01/29 02:25:28;;;;;;;39.85;17.58;;;;;;;;;;5026732;28;20029;-65
2022/01/29 02:27:54;;;;;;;41.00;17.67;;;;;;;;;;5030197;28;20388;-66
2022/01/29 02:30:19;;;;;;;43.58;18.58;;;;;;;;;;5019511;28;20041;-66
2022/01/29 02:32:45;;;;;;;37.72;16.67;;;;;;;;;;5010859;28;20044;-65
2022/01/29 02:35:10;;;;;;;35.80;16.20;;;;;;;;;;5026830;28;20029;-65
2022/01/29 02:37:36;;;;;;;42.90;18.60;;;;;;;;;;5026674;28;20132;-65
2022/01/29 02:40:02;;;;;;;33.60;14.07;;;;;;;;;;5012114;28;20092;-65
2022/01/29 02:42:27;;;;;;;45.40;19.60;;;;;;;;;;5019599;28;20037;-65
2022/01/29 02:44:53;;;;;;;40.25;18.83;;;;;;;;;;5030122;28;20029;-65
2022/01/29 02:47:31;;;;;;;35.67;16.67;;;;;;;;;;5027311;28;20029;-65
2022/01/29 02:49:56;;;;;;;36.03;15.35;;;;;;;;;;5029041;28;20391;-65
2022/01/29 02:52:21;;;;;;;38.30;16.75;;;;;;;;;;5018290;28;20026;-66
2022/01/29 02:54:47;;;;;;;42.85;18.10;;;;;;;;;;5029524;28;20029;-66
2022/01/29 02:57:13;;;;;;;36.33;16.67;;;;;;;;;;5017780;28;20100;-65
2022/01/29 02:59:38;;;;;;;38.55;15.20;;;;;;;;;;5025080;28;20065;-65
2022/01/29 03:02:03;;;;;;;45.10;18.95;;;;;;;;;;5015238;28;20038;-65
2022/01/29 03:04:29;;;;;;;44.10;16.65;;;;;;;;;;5009390;28;20042;-65
2022/01/29 03:06:54;;;;;;;40.13;16.73;;;;;;;;;;5019724;28;20377;-65
2022/01/29 03:09:20;;;;;;;45.17;19.10;;;;;;;;;;5017173;28;20042;-66
2022/01/29 03:11:45;;;;;;;60.70;22.30;;;;;;;;;;5027035;28;20026;-65
2022/01/29 03:14:10;;;;;;;52.17;22.20;;;;;;;;;;5011073;28;20057;-67
2022/01/29 03:16:36;;;;;;;42.38;18.88;;;;;;;;;;5028855;28;20044;-65
2022/01/29 03:19:02;;;;;;;40.08;16.77;;;;;;;;;;5028105;28;20459;-65
2022/01/29 03:21:27;;;;;;;45.47;17.25;;;;;;;;;;5041716;28;20037;-65
2022/01/29 03:23:52;;;;;;;50.80;21.80;;;;;;;;;;5014304;28;20083;-66
2022/01/29 03:26:18;;;;;;;54.08;22.35;;;;;;;;;;5014814;28;20030;-68
2022/01/29 03:28:43;;;;;;;44.05;18.95;;;;;;;;;;5027882;28;20037;-66
2022/01/29 03:31:09;;;;;;;43.13;18.33;;;;;;;;;;5015901;28;20045;-65
2022/01/29 03:33:34;;;;;;;39.80;16.35;;;;;;;;;;5030799;28;20147;-65
2022/01/29 03:36:00;;;;;;;51.88;21.50;;;;;;;;;;5019966;28;20092;-65
2022/01/29 03:38:25;;;;;;;38.55;16.67;;;;;;;;;;5036346;28;20048;-65
2022/01/29 03:40:52;;;;;;;40.20;16.80;;;;;;;;;;5040483;28;20029;-66
2022/01/29 03:43:27;;;;;;;46.53;19.95;;;;;;;;;;5024774;28;20502;-68
2022/01/29 03:45:52;;;;;;;45.10;19.85;;;;;;;;;;5015100;28;20025;-66
2022/01/29 03:48:17;;;;;;;42.42;18.23;;;;;;;;;;5021505;28;20029;-69
2022/01/29 03:50:43;;;;;;;47.78;20.60;;;;;;;;;;5014261;28;20030;-66
2022/01/29 03:53:08;;;;;;;54.58;19.95;;;;;;;;;;5025501;28;20045;-66
2022/01/29 03:55:34;;;;;;;43.33;16.88;;;;;;;;;;5031955;28;20040;-66
2022/01/29 03:57:59;;;;;;;44.33;17.50;;;;;;;;;;5028538;28;20022;-66
2022/01/29 04:00:24;;;;;;;40.58;16.13;;;;;;;;;;5015029;28;20390;-66
2022/01/29 04:02:50;;;;;;;59.03;21.85;;;;;;;;;;5017268;28;20124;-65
2022/01/29 04:05:15;;;;;;;49.88;18.80;;;;;;;;;;5034319;28;20119;-65
2022/01/29 04:07:41;;;;;;;40.10;18.90;;;;;;;;;;5029607;28;20083;-65
2022/01/29 04:10:07;;;;;;;54.05;20.98;;;;;;;;;;5018258;28;20037;-65
2022/01/29 04:12:39;;;;;;;46.72;17.48;;;;;;;;;;5022432;28;20037;-65
2022/01/29 04:15:05;;;;;;;59.47;21.85;;;;;;;;;;5020772;28;20080;-65
2022/01/29 04:17:31;;;;;;;32.28;15.32;;;;;;;;;;5023516;28;20045;-65
2022/01/29 04:19:56;;;;;;;30.30;14.07;;;;;;;;;;5032099;28;20060;-65
2022/01/29 04:22:22;;;;;;;47.45;18.73;;;;;;;;;;5025404;28;20387;-70
2022/01/29 04:24:47;;;;;;;55.75;23.27;;;;;;;;;;5026128;28;20036;-66
2022/01/29 04:27:19;;;;;;;45.88;17.90;;;;;;;;;;5019694;28;20176;-64
2022/01/29 04:29:56;;;;;;;35.13;15.32;;;;;;;;;;5028296;28;20030;-64
2022/01/29 04:32:56;;;;;;;48.47;18.70;;;;;;;;;;5019969;28;20286;-69
2022/01/29 04:35:17;;;;;;;39.20;17.38;;;;;;;;;;5012805;28;20179;-65
2022/01/29 04:37:42;;;;;;;37.60;14.55;;;;;;;;;;5014016;28;20535;-65
2022/01/29 04:40:08;;;;;;;42.40;16.52;;;;;;;;;;5012474;28;20095;-66
2022/01/29 04:42:34;;;;;;;32.63;14.82;;;;;;;;;;5019687;28;20086;-67
2022/01/29 04:44:59;;;;;;;55.72;20.67;;;;;;;;;;5029205;28;20033;-67
2022/01/29 04:47:25;;;;;;;49.53;19.75;;;;;;;;;;5031874;28;20037;-73
2022/01/29 04:49:50;;;;;;;42.72;15.40;;;;;;;;;;5013919;28;20033;-67
2022/01/29 04:52:16;;;;;;;37.15;15.75;;;;;;;;;;5013324;28;20022;-67
2022/01/29 04:54:41;;;;;;;33.33;15.27;;;;;;;;;;5013549;28;20026;-67
2022/01/29 04:57:06;;;;;;;36.72;16.20;;;;;;;;;;5024527;28;20032;-68
2022/01/29 04:59:32;;;;;;;52.83;20.70;;;;;;;;;;5026864;28;20041;-68
2022/01/29 05:01:57;;;;;;;38.08;16.48;;;;;;;;;;5036309;28;20061;-67
2022/01/29 05:04:23;;;;;;;58.22;22.48;;;;;;;;;;5011255;28;20129;-74
2022/01/29 05:06:48;;;;;;;32.40;15.20;;;;;;;;;;5013810;28;20037;-68
2022/01/29 05:09:14;;;;;;;38.92;15.80;;;;;;;;;;5030606;28;20394;-67
2022/01/29 05:11:42;;;;;;;48.40;19.65;;;;;;;;;;5024986;28;20061;-67
2022/01/29 05:14:11;;;;;;;49.58;19.48;;;;;;;;;;5031744;28;20099;-75
2022/01/29 05:17:06;;;;;;;45.95;17.98;;;;;;;;;;5028101;28;20127;-68
2022/01/29 05:27:36;;;;;;;34.20;13.35;;;;;;;;;;5040083;28;20041;-68
2022/01/29 05:30:02;;;;;;;34.22;15.70;;;;;;;;;;5023411;28;20030;-68
2022/01/29 05:32:27;;;;;;;35.58;18.58;;;;;;;;;;5011453;28;20033;-69
2022/01/29 05:34:53;;;;;;;43.05;19.27;;;;;;;;;;5034290;28;20029;-68
2022/01/29 05:37:18;;;;;;;51.97;20.13;;;;;;;;;;5020244;28;20033;-68
2022/01/29 05:39:44;;;;;;;46.47;20.77;;;;;;;;;;5027101;28;20025;-68
2022/01/29 05:42:09;;;;;;;44.60;18.60;;;;;;;;;;5012689;28;20117;-69
2022/01/29 05:44:34;;;;;;;43.47;18.35;;;;;;;;;;5016187;28;20021;-68
2022/01/29 05:47:00;;;;;;;38.88;17.60;;;;;;;;;;5035388;28;20041;-68
2022/01/29 05:49:25;;;;;;;39.67;16.73;;;;;;;;;;5044292;28;20112;-74
2022/01/29 05:51:50;;;;;;;48.75;16.67;;;;;;;;;;5032375;28;20357;-69
2022/01/29 05:54:16;;;;;;;37.08;16.60;;;;;;;;;;5012657;28;20105;-67
2022/01/29 05:56:42;;;;;;;41.85;19.73;;;;;;;;;;5027449;28;20041;-68
2022/01/29 05:59:08;;;;;;;29.67;15.77;;;;;;;;;;5024577;28;20030;-68
2022/01/29 06:01:33;;;;;;;28.88;15.05;;;;;;;;;;5017997;28;20075;-68
2022/01/29 06:03:58;;;;;;;35.10;16.58;;;;;;;;;;5015593;28;20475;-68
2022/01/29 06:06:24;;;;;;;37.58;15.73;;;;;;;;;;5017374;28;20095;-67
2022/01/29 06:08:49;;;;;;;35.53;15.25;;;;;;;;;;5030928;28;20030;-68
2022/01/29 06:11:16;;;;;;;37.10;15.93;;;;;;;;;;5039033;28;20021;-68
2022/01/29 06:13:42;;;;;;;26.13;14.23;;;;;;;;;;5049821;28;20086;-69
2022/01/29 06:16:07;;;;;;;34.05;14.48;;;;;;;;;;5042558;28;20037;-68
2022/01/29 06:18:33;;;;;;;36.53;18.02;;;;;;;;;;5011348;28;20432;-67
2022/01/29 06:21:04;;;;;;;26.92;12.48;;;;;;;;;;5014092;28;20037;-68
2022/01/29 06:23:32;;;;;;;28.40;13.75;;;;;;;;;;5014992;28;20030;-72
2022/01/29 06:25:58;;;;;;;30.35;14.73;;;;;;;;;;5022459;28;20088;-67
2022/01/29 06:28:24;;;;;;;24.83;11.95;;;;;;;;;;5031730;28;20029;-67
2022/01/29 06:30:49;;;;;;;35.95;15.70;;;;;;;;;;5028828;28;20044;-69
2022/01/29 06:33:15;;;;;;;30.52;14.77;;;;;;;;;;5046495;28;20037;-67
2022/01/29 06:35:42;;;;;;;32.40;14.48;;;;;;;;;;5030977;28;20037;-69
2022/01/29 06:38:10;;;;;;;30.13;12.38;;;;;;;;;;5013854;28;20103;-69
2022/01/29 06:40:36;;;;;;;28.63;12.93;;;;;;;;;;5026307;28;20166;-70
2022/01/29 06:43:04;;;;;;;31.23;14.25;;;;;;;;;;5026789;28;20041;-69
2022/01/29 06:45:30;;;;;;;29.25;14.27;;;;;;;;;;5027711;28;20041;-72
2022/01/29 06:47:56;;;;;;;27.20;12.63;;;;;;;;;;5021979;28;20132;-69
2022/01/29 06:50:22;;;;;;;40.17;14.73;;;;;;;;;;5030880;28;20168;-69
2022/01/29 06:52:47;;;;;;;33.95;14.98;;;;;;;;;;5030590;28;20371;-69
2022/01/29 06:55:13;;;;;;;38.13;16.38;;;;;;;;;;5026253;28;20534;-69
2022/01/29 06:57:39;;;;;;;30.42;14.52;;;;;;;;;;5045763;28;20030;-68
2022/01/29 07:00:07;;;;;;;25.75;12.85;;;;;;;;;;5021611;28;20145;-69
2022/01/29 07:02:33;;;;;;;26.20;12.80;;;;;;;;;;5017880;28;20049;-70
2022/01/29 07:04:59;;;;;;;31.10;14.38;;;;;;;;;;5034715;28;20120;-69
2022/01/29 07:07:24;;;;;;;31.13;12.82;;;;;;;;;;5030774;28;20104;-68
2022/01/29 07:09:50;;;;;;;26.33;13.48;;;;;;;;;;5022501;28;20061;-70
2022/01/29 07:12:15;;;;;;;29.77;14.02;;;;;;;;;;5016003;28;20391;-70
2022/01/29 07:14:41;;;;;;;28.70;13.38;;;;;;;;;;5024184;28;20048;-69
2022/01/29 07:17:16;;;;;;;30.17;13.63;;;;;;;;;;5018284;28;20045;-69
2022/01/29 07:19:42;;;;;;;24.65;13.45;;;;;;;;;;5026192;28;20047;-69
2022/01/29 07:22:08;;;;;;;28.33;14.77;;;;;;;;;;5034982;28;20041;-68
2022/01/29 07:24:34;;;;;;;31.23;13.43;;;;;;;;;;5048540;28;20037;-73
2022/01/29 07:27:02;;;;;;;35.50;14.65;;;;;;;;;;5044108;28;20074;-69
2022/01/29 07:29:27;;;;;;;27.58;12.20;;;;;;;;;;5036906;28;20033;-68
2022/01/29 07:31:53;;;;;;;30.67;14.23;;;;;;;;;;5052749;28;20029;-66
2022/01/29 07:34:18;;;;;;;28.13;13.27;;;;;;;;;;5048567;28;20033;-66
2022/01/29 07:36:44;;;;;;;33.65;15.23;;;;;;;;;;5031522;28;20478;-66
2022/01/29 07:39:09;;;;;;;39.78;16.55;;;;;;;;;;5034414;28;20187;-67
2022/01/29 07:41:35;;;;;;;32.70;13.98;;;;;;;;;;5033537;28;20064;-68
2022/01/29 07:44:00;;;;;;;32.58;14.15;;;;;;;;;;5034034;28;20191;-67
2022/01/29 07:46:25;;;;;;;40.60;17.30;;;;;;;;;;5030485;28;20468;-66
2022/01/29 07:48:51;;;;;;;36.72;16.17;;;;;;;;;;5012030;28;20030;-66
2022/01/29 07:51:16;;;;;;;33.78;15.52;;;;;;;;;;5014607;28;20108;-65
2022/01/29 07:53:42;;;;;;;37.83;16.65;;;;;;;;;;5013539;28;20471;-66
2022/01/29 07:56:07;;;;;;;39.35;19.65;;;;;;;;;;5014146;28;20613;-66
2022/01/29 07:58:33;;;;;;;36.47;16.45;;;;;;;;;;5014128;28;20049;-72
2022/01/29 08:00:58;;;;;;;43.83;17.08;;;;;;;;;;5019366;28;20037;-66
2022/01/29 08:03:23;;;;;;;31.85;13.77;;;;;;;;;;5034131;28;20033;-66
2022/01/29 08:05:49;;;;;;;40.13;17.08;;;;;;;;;;5033151;28;20057;-68
2022/01/29 08:08:14;;;;;;;50.78;19.38;;;;;;;;;;5045661;28;20494;-64
2022/01/29 08:10:40;;;;;;;47.25;20.52;;;;;;;;;;5040408;28;20029;-66
2022/01/29 08:13:05;;;;;;;40.78;16.73;;;;;;;;;;5053517;28;20028;-65
2022/01/29 08:15:31;;;;;;;39.42;17.67;;;;;;;;;;5045596;28;20099;-64
2022/01/29 08:17:56;;;;;;;43.80;17.25;;;;;;;;;;5031866;28;20483;-64
2022/01/29 08:20:22;;;;;;;40.13;17.27;;;;;;;;;;5040896;28;20529;-65
2022/01/29 08:22:48;;;;;;;40.42;18.20;;;;;;;;;;5052987;28;20363;-65
2022/01/29 08:25:14;;;;;;;52.40;21.38;;;;;;;;;;5042577;28;20087;-64
2022/01/29 08:27:40;;;;;;;54.95;20.88;;;;;;;;;;5032850;28;20037;-65
2022/01/29 08:30:07;;;;;;;53.60;21.77;;;;;;;;;;5034997;28;20042;-64
2022/01/29 08:32:33;;;;;;;52.20;21.67;;;;;;;;;;5034927;28;20108;-65
2022/01/29 08:34:58;;;;;;;48.50;20.25;;;;;;;;;;5048393;28;20108;-67
2022/01/29 08:37:24;;;;;;;39.67;19.85;;;;;;;;;;5040904;28;20061;-66
2022/01/29 08:39:49;;;;;;;47.88;20.00;;;;;;;;;;5037127;28;20055;-67
2022/01/29 08:42:15;;;;;;;48.85;19.67;;;;;;;;;;5042360;28;20059;-65
2022/01/29 08:44:42;;;;;;;29.95;15.00;;;;;;;;;;5052563;28;20025;-65
2022/01/29 08:47:07;;;;;;;43.25;18.73;;;;;;;;;;5046941;28;20040;-65
2022/01/29 08:49:33;;;;;;;35.45;13.88;;;;;;;;;;5034312;28;20108;-66
2022/01/29 08:51:58;;;;;;;40.80;17.15;;;;;;;;;;5033041;28;20110;-66
2022/01/29 08:54:23;;;;;;;36.38;18.20;;;;;;;;;;5032943;28;20030;-66
2022/01/29 08:56:49;;;;;;;37.55;17.48;;;;;;;;;;5037105;28;20035;-67
2022/01/29 08:59:15;;;;;;;33.10;16.15;;;;;;;;;;5053173;28;20036;-66
2022/01/29 09:01:40;;;;;;;39.83;17.58;;;;;;;;;;5038760;28;20435;-65
2022/01/29 09:04:05;;;;;;;32.65;14.98;;;;;;;;;;5033186;28;20491;-64
2022/01/29 09:06:31;;;;;;;32.50;15.75;;;;;;;;;;5034556;28;20084;-65
2022/01/29 09:08:56;;;;;;;29.13;13.90;;;;;;;;;;5031659;28;20108;-66
2022/01/29 09:11:22;;;;;;;30.88;14.13;;;;;;;;;;5045352;28;20033;-65
2022/01/29 09:13:48;;;;;;;33.13;16.48;;;;;;;;;;5050803;28;20080;-66
2022/01/29 09:16:13;;;;;;;37.65;17.45;;;;;;;;;;5040617;28;20053;-66
2022/01/29 09:18:38;;;;;;;33.22;15.55;;;;;;;;;;5031177;28;20029;-72
2022/01/29 09:21:04;;;;;;;26.95;14.10;;;;;;;;;;5035854;28;20033;-66
2022/01/29 09:23:30;;;;;;;38.03;17.55;;;;;;;;;;5052001;28;20033;-66
2022/01/29 09:25:56;;;;;;;30.00;13.88;;;;;;;;;;5051627;28;20380;-67
2022/01/29 09:28:22;;;;;;;26.38;14.07;;;;;;;;;;5051800;28;20514;-67
2022/01/29 09:30:49;;;;;;;37.42;16.92;;;;;;;;;;5051404;28;20056;-67
2022/01/29 09:33:15;;;;;;;27.55;15.13;;;;;;;;;;5051960;28;20036;-67
2022/01/29 09:35:44;;;;;;;39.92;17.90;;;;;;;;;;5038441;28;20043;-70
2022/01/29 09:38:12;;;;;;;41.05;17.25;;;;;;;;;;5042500;28;20437;-67
2022/01/29 09:40:40;;;;;;;38.20;17.17;;;;;;;;;;5050885;28;20059;-69
2022/01/29 09:43:06;;;;;;;39.67;18.77;;;;;;;;;;5051009;28;20039;-66
2022/01/29 09:45:32;;;;;;;39.42;18.63;;;;;;;;;;5039255;28;20030;-66
2022/01/29 09:48:02;;;;;;;44.28;20.60;;;;;;;;;;5034992;28;20036;-66
2022/01/29 09:50:30;;;;;;;39.08;19.55;;;;;;;;;;5012353;28;20025;-66
2022/01/29 09:52:56;;;;;;;27.40;14.88;;;;;;;;;;5023824;28;20026;-66
2022/01/29 09:55:22;;;;;;;33.55;16.63;;;;;;;;;;5012511;28;20029;-66
2022/01/29 09:57:50;;;;;;;39.70;18.13;;;;;;;;;;5010899;28;20443;-67
2022/01/29 10:00:16;;;;;;;34.63;17.17;;;;;;;;;;5019410;28;20033;-66
2022/01/29 10:02:42;;;;;;;32.63;17.27;;;;;;;;;;5010983;28;20120;-70
2022/01/29 10:05:11;;;;;;;36.47;17.88;;;;;;;;;;5026319;28;20033;-66
2022/01/29 10:07:37;;;;;;;38.22;17.63;;;;;;;;;;5031988;28;20033;-68
2022/01/29 10:10:17;;;;;;;34.30;16.73;;;;;;;;;;5027571;28;20385;-65
2022/01/29 10:12:43;;;;;;;31.38;16.63;;;;;;;;;;5042643;28;20030;-70
2022/01/29 10:15:09;;;;;;;38.55;18.85;;;;;;;;;;5041433;28;20032;-67
2022/01/29 10:17:39;;;;;;;36.78;18.63;;;;;;;;;;5046143;28;20564;-66
2022/01/29 10:20:16;;;;;;;29.45;16.95;;;;;;;;;;5040017;28;20033;-67
2022/01/29 10:22:45;;;;;;;36.10;15.75;;;;;;;;;;5035682;28;20339;-71
2022/01/29 10:25:17;;;;;;;34.92;17.98;;;;;;;;;;5051699;28;20107;-67
2022/01/29 10:28:04;;;;;;;33.03;16.20;;;;;;;;;;5049847;28;20028;-70
2022/01/29 10:30:30;;;;;;;28.70;15.43;;;;;;;;;;5049723;28;20029;-67
2022/01/29 10:33:15;;;;;;;28.00;17.00;;;;;;;;;;5042797;28;20104;-67
2022/01/29 10:35:44;;;;;;;36.22;17.92;;;;;;;;;;5031293;28;20029;-68
2022/01/29 10:38:10;;;;;;;27.48;15.05;;;;;;;;;;5032938;28;20033;-67
2022/01/29 10:40:35;;;;;;;37.67;19.80;;;;;;;;;;5029841;28;20091;-68
2022/01/29 10:43:05;;;;;;;25.77;14.95;;;;;;;;;;5039479;28;20265;-68
2022/01/29 10:45:35;;;;;;;32.08;17.58;;;;;;;;;;5051710;28;20021;-68
2022/01/29 10:48:01;;;;;;;38.25;19.98;;;;;;;;;;5035896;28;20082;-68
2022/01/29 10:50:27;;;;;;;38.08;18.65;;;;;;;;;;5031604;28;20116;-69
2022/01/29 10:52:56;;;;;;;30.67;16.27;;;;;;;;;;5031395;28;20034;-68
2022/01/29 10:55:21;;;;;;;25.20;13.63;;;;;;;;;;5031844;28;20072;-68
2022/01/29 10:57:48;;;;;;;35.17;17.95;;;;;;;;;;5042080;28;20092;-69
2022/01/29 11:00:24;;;;;;;32.50;16.45;;;;;;;;;;5046558;28;20028;-68
2022/01/29 11:02:53;;;;;;;31.88;16.17;;;;;;;;;;5048112;28;20028;-67
2022/01/29 11:05:19;;;;;;;38.33;18.95;;;;;;;;;;5049784;28;20034;-67
2022/01/29 11:07:47;;;;;;;26.23;14.20;;;;;;;;;;5043479;28;20036;-69
2022/01/29 11:10:13;;;;;;;21.58;13.55;;;;;;;;;;5026505;28;20030;-67
2022/01/29 11:12:43;;;;;;;25.17;14.23;;;;;;;;;;5022580;28;20047;-68
2022/01/29 11:15:10;;;;;;;27.05;14.48;;;;;;;;;;5027327;28;20045;-68
2022/01/29 11:17:36;;;;;;;22.50;14.48;;;;;;;;;;5028690;28;20037;-68
2022/01/29 11:20:02;;;;;;;21.88;12.85;;;;;;;;;;5027949;28;20033;-69
2022/01/29 11:22:32;;;;;;;23.65;12.95;;;;;;;;;;5028644;28;20041;-68
2022/01/29 11:25:01;;;;;;;21.38;12.55;;;;;;;;;;5027997;28;20051;-68
2022/01/29 11:27:30;;;;;;;30.85;16.20;;;;;;;;;;5028815;28;20558;-69
2022/01/29 11:30:08;;;;;;;25.52;14.15;;;;;;;;;;5011312;28;20513;-68
2022/01/29 11:32:43;;;;;;;24.65;15.27;;;;;;;;;;5012380;28;20084;-68
2022/01/29 11:35:10;;;;;;;24.77;13.43;;;;;;;;;;5027962;28;20052;-68
2022/01/29 11:37:57;;;;;;;24.42;13.65;;;;;;;;;;5029109;28;20045;-68
2022/01/29 11:40:37;;;;;;;22.73;11.80;;;;;;;;;;5027484;28;20034;-68
2022/01/29 11:43:05;;;;;;;21.02;11.55;;;;;;;;;;5008011;28;20084;-68
2022/01/29 11:45:44;;;;;;;19.90;13.10;;;;;;;;;;5029362;28;20042;-68
2022/01/29 11:48:29;;;;;;;20.58;11.90;;;;;;;;;;5031216;28;20033;-68
2022/01/29 11:51:09;;;;;;;20.52;10.00;;;;;;;;;;5033021;28;20042;-68
2022/01/29 11:54:01;;;;;;;19.73;10.23;;;;;;;;;;5033064;28;20029;-68
2022/01/29 11:56:37;;;;;;;13.57;8.45;;;;;;;;;;5028985;28;20625;-68
2022/01/29 11:59:23;;;;;;;18.90;10.50;;;;;;;;;;5033303;28;20111;-68
2022/01/29 12:01:52;;;;;;;15.68;10.88;;;;;;;;;;5019216;28;20095;-68
2022/01/29 12:04:20;;;;;;;18.58;9.93;;;;;;;;;;5034523;28;20029;-67
2022/01/29 12:07:16;;;;;;;17.52;10.10;;;;;;;;;;5029555;28;20468;-68
2022/01/29 12:09:47;;;;;;;15.38;9.80;;;;;;;;;;5034643;28;20030;-68
2022/01/29 12:12:13;;;;;;;16.42;9.15;;;;;;;;;;5033983;28;20032;-68
2022/01/29 12:14:39;;;;;;;15.60;8.75;;;;;;;;;;5034038;28;20037;-69
2022/01/29 12:17:07;;;;;;;15.60;9.07;;;;;;;;;;5031226;28;20048;-68
2022/01/29 12:19:40;;;;;;;15.30;9.15;;;;;;;;;;5032777;28;20037;-68
2022/01/29 12:22:11;;;;;;;13.82;8.30;;;;;;;;;;5033087;28;20037;-69
2022/01/29 12:24:36;;;;;;;;;;;;;;;;;;5034433;28;20065;-68
2022/01/29 12:27:03;;;;;;;13.35;8.05;;;;;;;;;;5033206;28;19917;-70
2022/01/29 12:29:29;;;;;;;14.07;8.38;;;;;;;;;;5032614;28;20053;-68
2022/01/29 12:31:56;;;;;;;16.08;9.57;;;;;;;;;;5032541;28;20041;-70
2022/01/29 12:34:21;;;;;;;12.70;8.25;;;;;;;;;;5034711;28;20100;-70
2022/01/29 12:36:47;;;;;;;14.48;8.65;;;;;;;;;;5044044;28;20041;-69
2022/01/29 12:39:24;;;;;;;12.98;8.18;;;;;;;;;;5042122;28;20390;-69
2022/01/29 12:44:38;;;;;;;13.43;8.35;;;;;;;;;;5051225;28;20107;-69
2022/01/29 12:47:03;;;;;;;13.40;8.45;;;;;;;;;;5050590;28;20111;-69
2022/01/29 12:49:41;;;;;;;14.43;7.28;;;;;;;;;;5037370;28;20587;-67
2022/01/29 12:52:17;;;;;;;12.38;7.30;;;;;;;;;;5015654;28;20146;-68
2022/01/29 12:54:51;;;;;;;12.80;7.50;;;;;;;;;;5022044;28;20032;-68
2022/01/29 12:57:17;;;;;;;15.35;8.55;;;;;;;;;;5032388;28;20079;-67
2022/01/29 12:59:43;;;;;;;11.38;7.03;;;;;;;;;;5031648;28;20033;-68
2022/01/29 13:02:09;;;;;;;9.20;6.70;;;;;;;;;;5041024;28;20395;-67
2022/01/29 13:04:34;;;;;;;9.27;5.55;;;;;;;;;;5051511;28;20028;-67
2022/01/29 13:07:07;;;;;;;12.32;6.53;;;;;;;;;;5033054;28;20112;-67
2022/01/29 13:09:36;;;;;;;12.52;8.00;;;;;;;;;;5041006;28;20113;-67
2022/01/29 13:12:06;;;;;;;10.73;6.88;;;;;;;;;;5011322;28;20120;-67
2022/01/29 13:14:33;;;;;;;13.13;7.50;;;;;;;;;;5029535;28;20434;-67
2022/01/29 13:17:09;;;;;;;11.65;7.13;;;;;;;;;;5030384;28;20049;-66
2022/01/29 13:19:36;;;;;;;13.88;8.20;;;;;;;;;;5012914;28;20042;-65
2022/01/29 13:22:05;;;;;;;9.23;5.97;;;;;;;;;;5030347;28;20457;-66
2022/01/29 13:24:44;;;;;;;11.45;7.55;;;;;;;;;;5031731;28;20038;-68
2022/01/29 13:27:15;;;;;;;10.52;6.68;;;;;;;;;;5031625;28;20475;-67
2022/01/29 13:29:42;;;;;;;13.32;6.80;;;;;;;;;;5032857;28;20072;-67
2022/01/29 13:32:12;;;;;;;15.70;7.93;;;;;;;;;;5031748;28;20103;-66
2022/01/29 13:34:40;;;;;;;15.50;9.18;;;;;;;;;;5028396;28;20430;-66
2022/01/29 13:37:25;;;;;;;14.35;7.60;;;;;;;;;;5035677;28;20053;-66
2022/01/29 13:39:51;;;;;;;14.23;7.50;;;;;;;;;;5032615;28;20033;-66
2022/01/29 13:42:19;;;;;;;11.93;6.82;;;;;;;;;;5021732;28;20033;-65
2022/01/29 13:45:09;;;;;;;12.10;8.32;;;;;;;;;;5011992;28;20025;-65
2022/01/29 13:47:57;;;;;;;10.73;6.63;;;;;;;;;;5013245;28;20105;-66
2022/01/29 13:50:31;;;;;;;11.93;7.10;;;;;;;;;;5026138;28;20067;-65
2022/01/29 13:53:10;;;;;;;8.95;5.72;;;;;;;;;;5046029;28;20072;-68
2022/01/29 13:55:38;;;;;;;10.70;5.95;;;;;;;;;;5032692;28;20037;-66
2022/01/29 13:58:12;;;;;;;10.20;6.82;;;;;;;;;;5017600;28;20036;-67
2022/01/29 14:01:03;;;;;;;10.05;5.40;;;;;;;;;;5032596;28;20030;-66
2022/01/29 14:03:40;;;;;;;;;;;;;;;;;;5042208;28;20058;-65
2022/01/29 14:06:34;;;;;;;8.93;5.25;;;;;;;;;;5024874;28;20007;-65
2022/01/29 14:09:19;;;;;;;11.75;7.25;;;;;;;;;;5009432;28;20082;-66
2022/01/29 14:11:57;;;;;;;10.63;6.60;;;;;;;;;;5035127;28;20200;-66
2022/01/29 14:14:29;;;;;;;11.25;6.13;;;;;;;;;;5051636;28;20033;-65
2022/01/29 14:16:56;;;;;;;10.00;5.78;;;;;;;;;;5050368;28;20067;-68
2022/01/29 14:19:23;;;;;;;9.45;5.47;;;;;;;;;;5029280;28;20112;-66
2022/01/29 14:21:51;;;;;;;10.05;5.70;;;;;;;;;;5035774;28;20074;-65
2022/01/29 14:24:21;;;;;;;7.75;4.88;;;;;;;;;;5050760;28;20489;-65
2022/01/29 14:26:47;;;;;;;13.55;6.13;;;;;;;;;;5049545;28;20029;-66
2022/01/29 14:29:13;;;;;;;11.13;6.35;;;;;;;;;;5050780;28;20047;-65
2022/01/29 14:31:38;;;;;;;12.85;6.38;;;;;;;;;;5047953;28;20037;-67
2022/01/29 14:34:05;;;;;;;9.73;6.47;;;;;;;;;;5049517;28;20486;-66
2022/01/29 14:36:34;;;;;;;11.80;6.88;;;;;;;;;;5049446;28;20487;-66